Time;durP1;ratioP1;P1;durP2;ratioP2;P2;SDS_P1;SDS_P2;PMS_P1;PMS_P2;Temp;Humidity;BMP_temperature;BMP_pressure;BME280_temperature;BME280_humidity;BME280_pressure;Samples;Min_cycle;Max_cycle;Signal;HPM_P1;HPM_P2
2023/10/07 00:03:01;;;;;;;0.45;0.45;;;16.00;99.90;;;;;;5032945;28;20130;-80
2023/10/07 00:05:35;;;;;;;0.25;0.25;;;16.00;99.90;;;;;;5012670;28;20032;-79
2023/10/07 00:08:19;;;;;;;0.60;0.57;;;16.00;99.90;;;;;;5016224;28;20022;-79
2023/10/07 00:10:48;;;;;;;1.08;0.57;;;15.90;99.90;;;;;;5033276;28;20017;-78
2023/10/07 00:13:16;;;;;;;4.25;3.60;;;16.00;99.90;;;;;;5015357;28;20318;-79
2023/10/07 00:15:47;;;;;;;0.22;0.22;;;16.00;99.90;;;;;;5031527;28;20025;-77
2023/10/07 00:18:14;;;;;;;0.20;0.20;;;16.00;99.90;;;;;;5015355;28;20056;-78
2023/10/07 00:20:48;;;;;;;0.30;0.30;;;16.00;99.90;;;;;;5011653;28;20033;-78
2023/10/07 00:23:21;;;;;;;0.30;0.30;;;15.90;99.90;;;;;;5016937;28;20087;-78
2023/10/07 00:25:50;;;;;;;;;;;15.90;99.90;;;;;;5034273;28;20044;-78
2023/10/07 00:28:31;;;;;;;0.20;0.20;;;15.90;99.90;;;;;;5011432;28;20209;-78
2023/10/07 00:31:02;;;;;;;0.93;0.85;;;15.80;99.90;;;;;;5015180;28;20143;-78
2023/10/07 00:33:30;;;;;;;0.20;0.20;;;15.80;99.90;;;;;;5016858;28;20460;-78
2023/10/07 00:36:01;;;;;;;0.30;0.30;;;15.80;99.90;;;;;;5035281;28;20030;-78
2023/10/07 00:38:37;;;;;;;0.35;0.35;;;15.80;99.90;;;;;;5032760;28;20032;-78
2023/10/07 00:41:04;;;;;;;1.60;0.77;;;15.70;99.90;;;;;;5030039;28;20022;-78
2023/10/07 00:43:33;;;;;;;0.17;0.17;;;15.70;99.90;;;;;;5035952;28;20022;-78
2023/10/07 00:46:20;;;;;;;0.25;0.25;;;15.70;99.90;;;;;;5031750;28;20484;-78
2023/10/07 00:48:48;;;;;;;0.40;0.40;;;15.70;99.90;;;;;;5035768;28;20128;-78
2023/10/07 00:51:17;;;;;;;0.32;0.32;;;15.70;99.90;;;;;;5032998;28;20021;-78
2023/10/07 00:53:51;;;;;;;0.20;0.20;;;15.70;99.90;;;;;;5036566;28;20052;-78
2023/10/07 00:56:17;;;;;;;0.28;0.28;;;15.70;99.90;;;;;;5031338;28;20021;-78
2023/10/07 00:58:46;;;;;;;0.22;0.22;;;15.70;99.90;;;;;;5035953;28;20496;-78
2023/10/07 01:01:12;;;;;;;0.30;0.30;;;15.60;99.90;;;;;;5033517;28;20021;-78
2023/10/07 01:03:47;;;;;;;0.20;0.20;;;15.60;99.90;;;;;;5033154;28;20032;-78
2023/10/07 01:06:26;;;;;;;0.40;0.40;;;15.60;99.90;;;;;;5031336;28;20025;-78
2023/10/07 01:09:14;;;;;;;0.30;0.30;;;15.70;99.90;;;;;;5036672;28;20025;-78
2023/10/07 01:11:46;;;;;;;0.40;0.40;;;15.60;99.90;;;;;;5036947;28;20396;-76
2023/10/07 01:14:12;;;;;;;0.40;0.40;;;15.70;99.90;;;;;;5018175;28;20074;-77
2023/10/07 01:16:44;;;;;;;0.30;0.30;;;15.70;99.90;;;;;;5016026;28;20083;-77
2023/10/07 01:21:50;;;;;;;0.40;0.40;;;15.60;99.90;;;;;;5034622;28;20024;-76
2023/10/07 01:24:23;;;;;;;0.65;0.65;;;15.70;99.90;;;;;;5020755;28;20465;-76
2023/10/07 01:26:49;;;;;;;0.25;0.25;;;15.70;99.90;;;;;;5018506;28;20029;-77
2023/10/07 01:29:15;;;;;;;0.32;0.32;;;15.70;99.90;;;;;;5033661;28;20096;-77
2023/10/07 01:34:47;;;;;;;0.20;0.20;;;15.60;99.90;;;;;;5014902;28;20029;-77
2023/10/07 01:37:15;;;;;;;0.38;0.38;;;15.60;99.90;;;;;;5037583;28;20022;-77
2023/10/07 01:39:42;;;;;;;0.57;0.57;;;15.60;99.90;;;;;;5033841;28;20021;-77
2023/10/07 01:42:14;;;;;;;0.50;0.50;;;15.60;99.90;;;;;;5040764;28;20017;-77
2023/10/07 01:44:41;;;;;;;2.92;0.40;;;15.70;99.90;;;;;;5033567;28;20060;-77
2023/10/07 01:47:23;;;;;;;0.40;0.40;;;15.70;99.90;;;;;;5034863;28;20108;-77
2023/10/07 01:49:56;;;;;;;0.40;0.40;;;15.60;99.90;;;;;;5030586;28;20374;-77
2023/10/07 01:52:26;;;;;;;;;;;15.60;99.90;;;;;;5034501;28;20021;-77
2023/10/07 01:54:52;;;;;;;0.50;0.50;;;15.60;99.90;;;;;;5035791;28;19979;-77
2023/10/07 01:57:19;;;;;;;0.30;0.30;;;15.70;99.90;;;;;;5018942;28;20052;-77
2023/10/07 01:59:45;;;;;;;0.25;0.25;;;15.60;99.90;;;;;;5017904;28;20029;-76
2023/10/07 02:02:13;;;;;;;0.20;0.20;;;15.40;99.90;;;;;;5016740;28;20018;-79
2023/10/07 02:04:38;;;;;;;0.20;0.20;;;15.40;99.90;;;;;;5017952;28;20030;-79
2023/10/07 02:07:04;;;;;;;0.93;0.93;;;15.40;99.90;;;;;;5032299;28;20082;-79
2023/10/07 02:09:35;;;;;;;0.30;0.30;;;15.40;99.90;;;;;;5031376;28;20044;-77
2023/10/07 02:12:09;;;;;;;0.20;0.20;;;15.50;99.90;;;;;;5017067;28;20316;-77
2023/10/07 02:14:35;;;;;;;0.28;0.28;;;15.40;99.90;;;;;;5015997;28;20323;-77
2023/10/07 02:17:06;;;;;;;0.35;0.35;;;15.30;99.90;;;;;;5033022;28;20026;-77
2023/10/07 02:19:32;;;;;;;0.40;0.40;;;15.30;99.90;;;;;;5034346;28;20498;-77
2023/10/07 02:22:13;;;;;;;1.00;0.45;;;15.40;99.90;;;;;;5019986;28;20029;-77
2023/10/07 02:24:41;;;;;;;0.28;0.28;;;15.30;99.90;;;;;;5015143;28;20441;-77
2023/10/07 02:27:18;;;;;;;0.20;0.20;;;15.40;99.90;;;;;;5032584;28;20442;-77
2023/10/07 02:29:48;;;;;;;0.30;0.30;;;15.30;99.90;;;;;;5016925;28;20084;-77
2023/10/07 02:32:14;;;;;;;0.30;0.30;;;15.40;99.90;;;;;;5031659;28;20450;-77
2023/10/07 02:34:53;;;;;;;0.50;0.50;;;15.40;99.90;;;;;;5035007;28;20021;-77
2023/10/07 02:37:21;;;;;;;0.40;0.40;;;15.30;99.90;;;;;;5015209;28;20650;-79
2023/10/07 02:39:55;;;;;;;0.73;0.73;;;15.40;99.90;;;;;;5033101;28;20099;-77
2023/10/07 02:42:28;;;;;;;0.57;0.57;;;15.30;99.90;;;;;;5035357;28;20037;-77
2023/10/07 02:45:20;;;;;;;0.20;0.20;;;15.30;99.90;;;;;;5018739;28;20025;-76
2023/10/07 02:47:54;;;;;;;0.28;0.28;;;15.40;99.90;;;;;;5033646;28;20764;-77
2023/10/07 02:50:21;;;;;;;0.43;0.43;;;15.40;99.90;;;;;;5019784;28;20072;-77
2023/10/07 02:52:47;;;;;;;0.47;0.47;;;15.40;99.90;;;;;;5037228;28;20053;-77
2023/10/07 02:57:42;;;;;;;0.20;0.20;;;15.30;99.90;;;;;;5040995;28;20052;-77
2023/10/07 03:00:18;;;;;;;0.20;0.20;;;15.40;99.90;;;;;;5020554;28;20052;-77
2023/10/07 03:02:50;;;;;;;0.30;0.30;;;15.50;99.90;;;;;;5017349;28;20017;-77
2023/10/07 03:05:35;;;;;;;2.33;0.63;;;15.40;99.90;;;;;;5039040;28;20033;-79
2023/10/07 03:08:04;;;;;;;0.20;0.20;;;15.60;99.90;;;;;;5044142;28;20021;-76
2023/10/07 03:11:03;;;;;;;0.40;0.40;;;15.50;99.90;;;;;;5040658;28;20022;-77
2023/10/07 03:13:19;;;;;;;0.28;0.28;;;15.50;99.90;;;;;;5039358;28;20025;-77
2023/10/07 03:16:09;;;;;;;0.30;0.30;;;15.50;99.90;;;;;;5037894;28;20048;-76
2023/10/07 03:18:33;;;;;;;0.30;0.30;;;15.40;99.90;;;;;;5036843;28;20026;-77
2023/10/07 03:21:11;;;;;;;2.90;1.75;;;15.40;99.90;;;;;;5020656;28;20498;-76
2023/10/07 03:23:46;;;;;;;1.00;0.85;;;15.40;99.90;;;;;;5038558;28;20513;-77
2023/10/07 03:26:19;;;;;;;0.30;0.30;;;15.50;99.90;;;;;;5029050;28;20066;-76
2023/10/07 03:28:55;;;;;;;0.20;0.20;;;15.60;99.90;;;;;;5036113;28;20673;-77
2023/10/07 03:31:33;;;;;;;0.30;0.30;;;15.40;99.90;;;;;;5036776;28;20079;-77
2023/10/07 03:33:59;;;;;;;0.45;0.45;;;15.50;99.90;;;;;;5019107;28;20030;-78
2023/10/07 03:36:41;;;;;;;0.35;0.28;;;15.50;99.90;;;;;;5016600;28;20029;-79
2023/10/07 03:41:52;;;;;;;0.88;0.88;;;15.50;99.90;;;;;;5034420;28;20020;-79
2023/10/07 03:44:22;;;;;;;0.20;0.20;;;15.60;99.90;;;;;;5038202;28;20135;-79
2023/10/07 03:46:57;;;;;;;0.35;0.35;;;15.60;99.90;;;;;;5036797;28;20528;-79
2023/10/07 03:49:27;;;;;;;0.30;0.30;;;15.70;99.90;;;;;;5038850;28;20041;-78
2023/10/07 03:52:06;;;;;;;1.00;1.00;;;15.60;99.90;;;;;;5035718;28;20029;-79
2023/10/07 03:54:33;;;;;;;0.40;0.40;;;15.70;99.90;;;;;;5022772;28;20025;-81
2023/10/07 03:57:01;;;;;;;0.45;0.45;;;15.70;99.90;;;;;;5041029;28;20071;-79
2023/10/07 03:59:31;;;;;;;0.40;0.40;;;15.80;99.90;;;;;;5035351;28;20025;-79
2023/10/07 04:01:58;;;;;;;0.28;0.28;;;15.70;99.90;;;;;;5038410;28;20022;-79
2023/10/07 04:04:24;;;;;;;0.80;0.80;;;15.70;99.90;;;;;;5036402;28;20021;-79
2023/10/07 04:06:51;;;;;;;1.02;1.02;;;15.80;99.90;;;;;;5036197;28;20724;-79
2023/10/07 04:09:17;;;;;;;2.40;0.50;;;15.80;99.90;;;;;;5036993;28;20291;-78
2023/10/07 04:11:49;;;;;;;0.38;0.38;;;15.80;99.90;;;;;;5036276;28;20485;-79
2023/10/07 04:14:35;;;;;;;0.27;0.27;;;15.90;99.90;;;;;;5037402;28;20021;-78
2023/10/07 04:17:06;;;;;;;0.47;0.47;;;15.90;99.90;;;;;;5021809;28;20103;-78
2023/10/07 04:19:38;;;;;;;0.77;0.77;;;15.90;99.90;;;;;;5037480;28;20009;-79
2023/10/07 04:22:07;;;;;;;0.35;0.35;;;15.90;99.90;;;;;;5036873;28;20017;-79
2023/10/07 04:24:33;;;;;;;0.47;0.45;;;16.00;99.90;;;;;;5022471;28;20041;-79
2023/10/07 04:27:03;;;;;;;0.68;0.68;;;15.90;99.90;;;;;;5037209;28;20597;-79
2023/10/07 04:29:32;;;;;;;0.85;0.30;;;15.90;99.90;;;;;;5032872;28;20032;-79
2023/10/07 04:32:05;;;;;;;0.43;0.43;;;16.00;99.90;;;;;;5035926;28;20545;-79
2023/10/07 04:34:35;;;;;;;0.25;0.25;;;15.90;99.90;;;;;;5018129;28;20496;-78
2023/10/07 04:39:37;;;;;;;0.40;0.40;;;15.90;99.90;;;;;;5036002;28;20017;-78
2023/10/07 04:42:03;;;;;;;0.65;0.65;;;15.80;99.90;;;;;;5035383;28;20041;-79
2023/10/07 04:52:52;;;;;;;1.85;1.40;;;16.00;99.90;;;;;;5022644;28;20497;-78
2023/10/07 04:55:26;;;;;;;0.20;0.20;;;16.00;99.90;;;;;;5015732;28;20397;-79
2023/10/07 05:02:59;;;;;;;0.65;0.65;;;15.90;99.90;;;;;;5033861;28;20378;-80
2023/10/07 05:05:30;;;;;;;0.50;0.50;;;16.00;99.90;;;;;;5019318;28;20032;-79
2023/10/07 05:08:08;;;;;;;0.60;0.60;;;16.00;99.90;;;;;;5025060;28;20021;-79
2023/10/07 05:10:50;;;;;;;4.18;0.80;;;16.10;99.90;;;;;;5032634;28;20037;-79
2023/10/07 05:13:16;;;;;;;0.82;0.82;;;16.20;99.90;;;;;;5030919;28;20021;-79
2023/10/07 05:15:42;;;;;;;1.00;0.95;;;16.10;99.90;;;;;;5029670;28;20095;-79
2023/10/07 05:18:12;;;;;;;0.75;0.73;;;16.10;99.90;;;;;;5036713;28;20029;-79
2023/10/07 05:20:41;;;;;;;0.63;0.63;;;16.10;99.90;;;;;;5012838;28;20025;-79
2023/10/07 05:23:08;;;;;;;0.93;0.93;;;16.10;99.90;;;;;;5033345;28;20025;-79
2023/10/07 05:25:38;;;;;;;0.40;0.40;;;16.10;99.90;;;;;;5035898;28;20104;-79
2023/10/07 05:28:10;;;;;;;0.90;0.55;;;16.10;99.90;;;;;;5019244;28;20111;-80
2023/10/07 05:30:50;;;;;;;2.58;1.23;;;16.10;99.90;;;;;;5033035;28;20489;-79
2023/10/07 05:33:17;;;;;;;1.48;0.55;;;16.10;99.90;;;;;;5029832;28;20033;-79
2023/10/07 05:35:43;;;;;;;0.60;0.57;;;16.10;99.90;;;;;;5030995;28;20028;-79
2023/10/07 05:38:11;;;;;;;0.43;0.43;;;16.20;99.90;;;;;;5016272;28;20150;-79
2023/10/07 05:40:37;;;;;;;2.30;1.50;;;16.10;99.90;;;;;;5031031;28;20024;-79
2023/10/07 05:43:06;;;;;;;1.20;1.10;;;16.10;99.90;;;;;;5033785;28;20063;-79
2023/10/07 05:45:33;;;;;;;0.55;0.55;;;16.10;99.90;;;;;;5032889;28;20017;-79
2023/10/07 05:48:01;;;;;;;0.77;0.77;;;16.20;99.90;;;;;;5035535;28;20033;-79
2023/10/07 05:50:27;;;;;;;2.05;1.40;;;16.20;99.90;;;;;;5032814;28;20417;-79
2023/10/07 05:52:54;;;;;;;1.88;1.13;;;16.30;99.90;;;;;;5014369;28;20021;-79
2023/10/07 05:55:21;;;;;;;1.75;1.05;;;16.20;99.90;;;;;;5037316;28;20058;-79
2023/10/07 05:57:47;;;;;;;0.43;0.43;;;16.20;99.90;;;;;;5033402;28;20080;-79
2023/10/07 06:00:13;;;;;;;0.70;0.52;;;16.30;99.90;;;;;;5017473;28;20155;-79
2023/10/07 06:02:40;;;;;;;0.98;0.52;;;16.30;99.90;;;;;;5032194;28;20485;-80
2023/10/07 06:05:06;;;;;;;3.80;0.85;;;16.20;99.90;;;;;;5033865;28;20024;-79
2023/10/07 06:07:32;;;;;;;1.30;1.13;;;16.20;99.90;;;;;;5032447;28;20116;-79
2023/10/07 06:09:59;;;;;;;1.08;1.08;;;16.20;99.90;;;;;;5031065;28;20508;-79
2023/10/07 06:12:24;;;;;;;0.85;0.45;;;16.20;99.90;;;;;;5023117;28;20029;-79
2023/10/07 06:14:50;;;;;;;0.30;0.30;;;16.20;99.90;;;;;;5034041;28;20035;-79
2023/10/07 06:17:16;;;;;;;0.60;0.52;;;16.10;99.90;;;;;;5035943;28;20757;-79
2023/10/07 06:19:43;;;;;;;0.70;0.70;;;16.10;99.90;;;;;;5016935;28;20041;-79
2023/10/07 06:22:12;;;;;;;0.40;0.40;;;16.20;99.90;;;;;;5023994;28;20032;-79
2023/10/07 06:24:41;;;;;;;0.65;0.65;;;16.30;99.90;;;;;;5037887;28;20022;-79
2023/10/07 06:27:11;;;;;;;3.63;0.93;;;16.30;99.90;;;;;;5038612;28;20462;-80
2023/10/07 06:29:43;;;;;;;0.70;0.70;;;16.40;99.90;;;;;;5038466;28;20040;-79
2023/10/07 06:32:25;;;;;;;0.30;0.30;;;16.40;99.90;;;;;;5037322;28;20033;-81
2023/10/07 06:34:59;;;;;;;0.70;0.70;;;16.40;99.90;;;;;;5017269;28;20171;-79
2023/10/07 06:37:29;;;;;;;1.33;0.85;;;16.30;99.90;;;;;;5037126;28;20363;-80
2023/10/07 06:39:57;;;;;;;1.55;0.75;;;16.40;99.90;;;;;;5017680;28;20045;-79
2023/10/07 06:42:24;;;;;;;0.47;0.47;;;16.40;99.90;;;;;;5026068;28;20029;-80
2023/10/07 06:44:55;;;;;;;0.60;0.60;;;16.40;99.90;;;;;;5017452;28;20033;-79
2023/10/07 06:47:23;;;;;;;0.57;0.57;;;16.40;99.90;;;;;;5020239;28;20025;-80
2023/10/07 06:49:52;;;;;;;0.68;0.68;;;16.40;99.90;;;;;;5021186;28;20189;-79
2023/10/07 06:52:20;;;;;;;0.55;0.55;;;16.40;99.90;;;;;;5035676;28;20017;-79
2023/10/07 06:54:47;;;;;;;1.45;1.33;;;16.50;99.90;;;;;;5036611;28;20017;-80
2023/10/07 06:57:13;;;;;;;1.08;0.65;;;16.50;99.90;;;;;;5037423;28;20014;-79
2023/10/07 06:59:40;;;;;;;0.68;0.68;;;16.60;99.90;;;;;;5037404;28;20041;-79
2023/10/07 07:02:06;;;;;;;0.20;0.20;;;16.60;99.90;;;;;;5034909;28;20017;-79
2023/10/07 07:04:35;;;;;;;1.30;1.25;;;16.60;99.90;;;;;;5036447;28;20018;-79
2023/10/07 07:07:10;;;;;;;0.60;0.60;;;16.50;99.90;;;;;;5037480;28;20017;-80
2023/10/07 07:12:16;;;;;;;0.55;0.55;;;16.60;99.90;;;;;;5036442;28;20029;-80
2023/10/07 07:14:51;;;;;;;0.30;0.30;;;16.70;99.90;;;;;;5016039;28;20440;-81
2023/10/07 07:17:30;;;;;;;0.50;0.50;;;16.80;99.90;;;;;;5032005;28;20018;-80
2023/10/07 07:22:46;;;;;;;0.55;0.55;;;16.80;99.90;;;;;;5035709;28;20021;-79
2023/10/07 07:25:22;;;;;;;0.63;0.63;;;16.90;99.90;;;;;;5037180;28;20423;-80
2023/10/07 07:27:49;;;;;;;0.50;0.50;;;17.00;99.90;;;;;;5019370;28;20504;-80
2023/10/07 07:30:35;;;;;;;0.35;0.35;;;17.00;99.90;;;;;;5038516;28;20041;-80
2023/10/07 07:33:08;;;;;;;0.30;0.30;;;17.10;99.90;;;;;;5038737;28;20040;-80
2023/10/07 07:35:38;;;;;;;0.25;0.25;;;17.20;99.90;;;;;;5032214;28;20025;-80
2023/10/07 07:40:49;;;;;;;0.88;0.88;;;17.30;99.90;;;;;;5035720;28;20024;-81
2023/10/07 07:43:15;;;;;;;0.68;0.68;;;17.40;99.90;;;;;;5020291;28;20040;-80
2023/10/07 07:45:41;;;;;;;0.95;0.60;;;17.30;99.90;;;;;;5035862;28;20095;-80
2023/10/07 07:48:07;;;;;;;0.38;0.38;;;17.30;99.90;;;;;;5034576;28;20083;-80
2023/10/07 07:50:35;;;;;;;0.77;0.77;;;17.30;99.90;;;;;;5015897;28;20106;-80
2023/10/07 07:53:07;;;;;;;0.43;0.43;;;17.20;99.90;;;;;;5015730;28;20076;-80
2023/10/07 07:55:43;;;;;;;0.25;0.25;;;17.20;99.90;;;;;;5020229;28;20020;-80
2023/10/07 07:58:10;;;;;;;0.85;0.85;;;17.20;99.90;;;;;;5035294;28;20017;-79
2023/10/07 08:00:40;;;;;;;0.95;0.95;;;17.20;99.90;;;;;;5018991;28;20025;-80
2023/10/07 08:03:07;;;;;;;1.88;1.77;;;17.30;99.90;;;;;;5031943;28;20018;-80
2023/10/07 08:05:39;;;;;;;2.28;1.00;;;17.30;99.90;;;;;;5038581;28;20026;-79
2023/10/07 08:08:18;;;;;;;1.10;1.00;;;17.30;99.90;;;;;;5035698;28;20056;-80
2023/10/07 08:10:44;;;;;;;0.45;0.45;;;17.20;99.90;;;;;;5034122;28;20030;-80
2023/10/07 08:13:10;;;;;;;0.25;0.25;;;17.30;99.90;;;;;;5037456;28;20472;-79
2023/10/07 08:15:47;;;;;;;0.40;0.40;;;17.50;99.90;;;;;;5037434;28;20071;-79
2023/10/07 08:18:15;;;;;;;0.50;0.50;;;17.40;99.90;;;;;;5020287;28;20319;-79
2023/10/07 08:20:48;;;;;;;0.82;0.82;;;17.40;99.90;;;;;;5036695;28;20455;-79
2023/10/07 08:23:23;;;;;;;;;;;17.40;99.90;;;;;;5034928;28;20021;-79
2023/10/07 08:25:49;;;;;;;0.30;0.30;;;17.40;99.90;;;;;;5031863;28;20263;-80
2023/10/07 08:30:46;;;;;;;0.28;0.28;;;17.40;99.90;;;;;;5033921;28;20036;-80
2023/10/07 08:33:14;;;;;;;0.30;0.30;;;17.40;99.90;;;;;;5034699;28;20031;-80
2023/10/07 08:35:43;;;;;;;0.35;0.35;;;17.50;99.90;;;;;;5022307;28;20067;-79
2023/10/07 08:38:20;;;;;;;0.22;0.22;;;17.50;99.90;;;;;;5032186;28;20021;-79
2023/10/07 08:41:05;;;;;;;0.30;0.30;;;17.50;99.90;;;;;;5018626;28;20044;-79
2023/10/07 08:44:03;;;;;;;0.30;0.30;;;17.70;99.90;;;;;;5035959;28;20028;-79
2023/10/07 08:46:28;;;;;;;0.25;0.25;;;17.70;99.90;;;;;;5017901;28;20102;-81
2023/10/07 08:49:04;;;;;;;0.52;0.52;;;17.80;99.90;;;;;;5033785;28;20571;-79
2023/10/07 08:51:33;;;;;;;0.77;0.77;;;17.90;99.90;;;;;;5019334;28;20382;-79
2023/10/07 08:54:47;;;;;;;0.30;0.30;;;18.10;99.90;;;;;;5038962;28;20021;-79
2023/10/07 08:56:54;;;;;;;2.03;1.25;;;18.10;99.90;;;;;;5031184;28;20548;-80
2023/10/07 08:59:32;;;;;;;0.22;0.22;;;18.30;99.90;;;;;;5030499;28;20024;-81
2023/10/07 09:02:04;;;;;;;0.38;0.38;;;18.50;99.90;;;;;;5016078;28;20025;-80
2023/10/07 09:04:33;;;;;;;0.80;0.80;;;18.70;99.90;;;;;;5018661;28;20036;-79
2023/10/07 09:07:00;;;;;;;0.73;0.50;;;19.00;99.90;;;;;;5037648;28;20064;-80
2023/10/07 09:09:35;;;;;;;0.38;0.38;;;19.10;99.90;;;;;;5033995;28;20579;-80
2023/10/07 09:12:08;;;;;;;1.85;1.40;;;19.40;99.90;;;;;;5035324;28;20029;-80
2023/10/07 09:14:40;;;;;;;1.02;1.02;;;19.50;99.90;;;;;;5039635;28;20032;-80
2023/10/07 09:17:09;;;;;;;1.35;1.35;;;19.80;99.90;;;;;;5036028;28;20020;-82
2023/10/07 09:19:36;;;;;;;1.90;1.83;;;20.00;99.90;;;;;;5026248;28;20025;-80
2023/10/07 09:22:10;;;;;;;0.98;0.90;;;19.90;99.90;;;;;;5017882;28;20037;-79
2023/10/07 09:24:41;;;;;;;0.40;0.40;;;20.10;99.90;;;;;;5037429;28;20052;-79
2023/10/07 09:27:13;;;;;;;1.00;1.00;;;20.20;99.90;;;;;;5035866;28;20611;-82
2023/10/07 09:29:44;;;;;;;0.88;0.82;;;20.50;99.90;;;;;;5033522;28;20017;-82
2023/10/07 09:32:21;;;;;;;1.25;1.20;;;20.40;99.90;;;;;;5035165;28;20139;-80
2023/10/07 09:34:47;;;;;;;0.63;0.63;;;20.60;99.90;;;;;;5036018;28;20033;-81
2023/10/07 09:37:26;;;;;;;0.60;0.60;;;20.90;99.90;;;;;;5016053;28;20031;-80
2023/10/07 09:40:19;;;;;;;0.70;0.70;;;21.00;99.90;;;;;;5017541;28;20543;-80
2023/10/07 09:42:56;;;;;;;;;;;21.00;99.90;;;;;;5033993;28;20029;-80
2023/10/07 09:45:28;;;;;;;0.47;0.47;;;21.00;99.90;;;;;;5034581;28;19917;-79
2023/10/07 09:47:54;;;;;;;0.40;0.38;;;21.30;99.90;;;;;;5035913;28;20029;-79
2023/10/07 09:53:35;;;;;;;0.82;0.82;;;21.30;99.90;;;;;;5044777;28;20018;-79
2023/10/07 09:56:20;;;;;;;0.52;0.52;;;21.30;99.90;;;;;;5022180;28;20021;-79
2023/10/07 09:59:18;;;;;;;0.80;0.80;;;21.40;99.90;;;;;;5035297;28;20021;-81
2023/10/07 10:02:16;;;;;;;1.02;1.02;;;21.70;99.90;;;;;;5035988;28;20026;-81
2023/10/07 10:04:57;;;;;;;0.40;0.40;;;21.40;99.90;;;;;;5025510;28;20021;-81
2023/10/07 10:08:11;;;;;;;1.75;0.60;;;21.60;99.90;;;;;;5017999;28;20028;-81
2023/10/07 10:10:45;;;;;;;0.55;0.55;;;21.70;99.90;;;;;;5033899;28;20134;-80
2023/10/07 10:16:13;;;;;;;0.90;0.90;;;21.90;99.90;;;;;;5033762;28;20056;-81
2023/10/07 10:18:48;;;;;;;1.02;1.02;;;22.20;99.90;;;;;;5033404;28;20029;-81
2023/10/07 10:21:14;;;;;;;0.60;0.60;;;22.30;99.90;;;;;;5030700;28;20107;-81
2023/10/07 10:23:44;;;;;;;0.70;0.70;;;22.50;99.90;;;;;;5016432;28;20501;-81
2023/10/07 10:26:14;;;;;;;5.25;1.50;;;22.30;99.90;;;;;;5021095;28;20026;-80
2023/10/07 10:28:41;;;;;;;0.70;0.70;;;22.20;99.90;;;;;;5039779;28;20028;-81
2023/10/07 10:31:19;;;;;;;0.60;0.60;;;22.10;99.90;;;;;;5032286;28;20017;-79
2023/10/07 10:33:49;;;;;;;0.73;0.73;;;22.20;99.90;;;;;;5020244;28;20478;-79
2023/10/07 10:36:22;;;;;;;2.30;0.75;;;22.30;99.90;;;;;;5031803;28;20014;-79
2023/10/07 10:38:48;;;;;;;0.60;0.60;;;22.10;99.90;;;;;;5036839;28;20029;-83
2023/10/07 10:41:14;;;;;;;1.35;1.25;;;22.20;99.90;;;;;;5032420;28;20056;-80
2023/10/07 10:43:40;;;;;;;0.43;0.43;;;22.40;99.90;;;;;;5034453;28;20017;-80
2023/10/07 10:46:07;;;;;;;6.50;0.82;;;22.50;99.90;;;;;;5012013;28;20102;-80
2023/10/07 10:48:40;;;;;;;0.52;0.52;;;22.80;99.90;;;;;;5032277;28;20024;-80
2023/10/07 10:51:07;;;;;;;0.60;0.60;;;22.90;99.90;;;;;;5035263;28;20476;-79
2023/10/07 10:53:40;;;;;;;0.88;0.88;;;22.80;99.90;;;;;;5031232;28;20501;-80
2023/10/07 10:56:10;;;;;;;0.50;0.50;;;22.90;99.90;;;;;;5033537;28;20068;-79
2023/10/07 10:58:36;;;;;;;0.50;0.50;;;23.00;99.90;;;;;;5034516;28;20121;-81
2023/10/07 11:01:05;;;;;;;0.73;0.73;;;22.90;99.90;;;;;;5028398;28;20033;-84
2023/10/07 11:03:35;;;;;;;1.15;1.02;;;22.90;99.90;;;;;;5049899;28;20020;-84
2023/10/07 11:06:06;;;;;;;1.40;1.30;;;22.70;99.90;;;;;;5044720;28;20036;-87
2023/10/07 11:08:33;;;;;;;0.70;0.70;;;22.70;99.90;;;;;;5049141;28;20028;-84
2023/10/07 11:11:00;;;;;;;5.05;0.57;;;22.70;99.90;;;;;;5028200;28;20549;-84
2023/10/07 11:13:34;;;;;;;0.85;0.70;;;22.80;99.90;;;;;;5025715;28;20072;-82
2023/10/07 11:16:09;;;;;;;1.15;1.10;;;22.80;99.90;;;;;;5041686;28;20289;-86
2023/10/07 11:18:45;;;;;;;2.15;1.48;;;22.90;99.90;;;;;;5041539;28;20376;-86
2023/10/07 11:21:12;;;;;;;2.13;0.98;;;22.90;99.90;;;;;;5021827;28;20040;-85
2023/10/07 11:24:06;;;;;;;0.57;0.57;;;23.00;99.90;;;;;;5041314;28;20048;-85
2023/10/07 11:26:33;;;;;;;0.88;0.88;;;22.80;99.90;;;;;;5037860;28;20084;-85
2023/10/07 11:29:11;;;;;;;0.70;0.70;;;22.70;99.90;;;;;;5021418;28;20059;-89
2023/10/07 11:31:37;;;;;;;0.70;0.70;;;22.90;99.90;;;;;;5037343;28;20099;-90
2023/10/07 11:34:05;;;;;;;0.63;0.63;;;23.00;99.90;;;;;;5027623;28;20443;-87
2023/10/07 11:36:43;;;;;;;1.10;1.00;;;22.90;99.90;;;;;;5027180;28;20120;-88
2023/10/07 11:39:09;;;;;;;0.90;0.90;;;22.80;99.90;;;;;;5045027;28;20028;-87
2023/10/07 11:41:37;;;;;;;0.95;0.95;;;22.80;99.90;;;;;;5025917;28;20028;-85
2023/10/07 11:44:03;;;;;;;0.60;0.60;;;22.90;99.90;;;;;;5029507;28;20069;-83
2023/10/07 11:46:29;;;;;;;1.25;1.25;;;23.00;99.90;;;;;;5039258;28;20031;-85
2023/10/07 11:48:56;;;;;;;1.00;1.00;;;23.10;99.90;;;;;;5037550;28;20051;-81
2023/10/07 11:51:23;;;;;;;1.70;1.38;;;23.40;99.90;;;;;;5018663;28;20113;-81
2023/10/07 11:53:52;;;;;;;0.50;0.50;;;23.30;99.90;;;;;;5034988;28;20025;-80
2023/10/07 11:56:17;;;;;;;0.70;0.70;;;22.90;99.90;;;;;;5033380;28;20036;-80
2023/10/07 11:58:45;;;;;;;0.75;0.75;;;22.90;99.90;;;;;;5032144;28;20024;-80
2023/10/07 12:01:11;;;;;;;0.40;0.40;;;23.10;99.90;;;;;;5014708;28;20071;-80
2023/10/07 12:03:39;;;;;;;0.77;0.77;;;23.10;99.90;;;;;;5013291;28;20381;-80
2023/10/07 12:06:05;;;;;;;1.00;1.00;;;23.20;99.90;;;;;;5035389;28;20020;-83
2023/10/07 12:08:34;;;;;;;0.80;0.80;;;23.20;99.90;;;;;;5019560;28;20039;-80
2023/10/07 12:11:00;;;;;;;0.80;0.57;;;23.30;99.90;;;;;;5053198;28;20033;-80
2023/10/07 12:13:28;;;;;;;0.70;0.70;;;23.40;99.90;;;;;;5016262;28;20577;-81
2023/10/07 12:15:54;;;;;;;0.98;0.98;;;23.40;99.90;;;;;;5028845;28;20025;-81
2023/10/07 12:18:19;;;;;;;0.90;0.73;;;23.80;99.90;;;;;;5027845;28;20036;-81
2023/10/07 12:20:45;;;;;;;0.60;0.60;;;23.80;99.90;;;;;;5030585;28;20095;-80
2023/10/07 12:23:11;;;;;;;0.60;0.60;;;23.90;99.40;;;;;;5030834;28;20021;-81
2023/10/07 12:25:37;;;;;;;2.25;1.10;;;23.90;99.40;;;;;;5031284;28;20040;-81
2023/10/07 12:28:05;;;;;;;0.60;0.60;;;24.10;98.90;;;;;;5018246;28;20021;-80
2023/10/07 12:30:31;;;;;;;0.68;0.68;;;24.30;98.60;;;;;;5020932;28;20025;-81
2023/10/07 12:32:57;;;;;;;0.98;0.98;;;24.40;98.30;;;;;;5032038;28;20128;-80
2023/10/07 12:35:24;;;;;;;0.70;0.70;;;24.40;97.90;;;;;;5013646;28;20031;-81
2023/10/07 12:37:52;;;;;;;1.95;0.85;;;24.30;97.30;;;;;;5032710;28;20377;-81
2023/10/07 12:40:18;;;;;;;1.67;1.58;;;24.20;98.00;;;;;;5032601;28;20017;-83
2023/10/07 12:42:45;;;;;;;1.13;1.00;;;24.10;97.60;;;;;;5018437;28;20075;-82
2023/10/07 12:45:11;;;;;;;0.98;0.88;;;24.20;97.50;;;;;;5031537;28;20087;-85
2023/10/07 12:47:39;;;;;;;1.05;0.93;;;24.30;97.70;;;;;;5032172;28;20029;-83
2023/10/07 12:50:28;;;;;;;0.95;0.95;;;24.20;98.50;;;;;;5035602;28;20049;-83
2023/10/07 12:52:57;;;;;;;1.23;1.13;;;24.30;97.70;;;;;;5029222;28;20025;-82
2023/10/07 12:55:23;;;;;;;0.85;0.85;;;24.40;97.70;;;;;;5034741;28;20021;-82
2023/10/07 12:57:49;;;;;;;0.80;0.80;;;24.60;97.80;;;;;;5031751;28;20132;-82
2023/10/07 13:00:19;;;;;;;2.70;1.02;;;24.80;97.50;;;;;;5033630;28;20029;-83
2023/10/07 13:02:55;;;;;;;1.08;1.08;;;24.90;96.90;;;;;;5033827;28;20013;-82
2023/10/07 13:05:23;;;;;;;0.85;0.85;;;25.10;97.00;;;;;;5031155;28;20268;-82
2023/10/07 13:07:53;;;;;;;1.85;1.67;;;25.10;96.40;;;;;;5030772;28;20543;-81
2023/10/07 13:10:19;;;;;;;0.95;0.95;;;24.80;96.50;;;;;;5034001;28;20035;-83
2023/10/07 13:12:49;;;;;;;0.95;0.95;;;24.60;96.40;;;;;;5033287;28;20303;-80
2023/10/07 13:15:16;;;;;;;3.17;1.60;;;24.20;96.90;;;;;;5031432;28;20016;-80
2023/10/07 13:17:45;;;;;;;1.08;1.08;;;24.10;97.20;;;;;;5030496;28;20022;-84
2023/10/07 13:20:23;;;;;;;1.25;1.10;;;24.00;97.50;;;;;;5020611;28;20424;-86
2023/10/07 13:22:49;;;;;;;1.30;1.30;;;24.10;97.90;;;;;;5032871;28;20489;-87
2023/10/07 13:25:19;;;;;;;1.70;1.55;;;23.90;97.60;;;;;;5025004;28;20351;-81
2023/10/07 13:27:48;;;;;;;1.00;1.00;;;23.90;98.00;;;;;;5036934;28;20482;-83
2023/10/07 13:30:16;;;;;;;0.75;0.75;;;23.80;98.10;;;;;;5135560;22;20019;-82
2023/10/07 13:32:46;;;;;;;3.58;3.00;;;24.10;98.30;;;;;;5001918;28;20109;-82
2023/10/07 13:35:15;;;;;;;0.95;0.95;;;24.30;98.40;;;;;;5014552;28;20017;-82
2023/10/07 13:37:43;;;;;;;1.90;1.80;;;24.30;98.20;;;;;;4983991;28;20048;-78
2023/10/07 13:40:15;;;;;;;7.78;1.92;;;24.50;97.80;;;;;;4994171;28;20719;-78
2023/10/07 13:42:54;;;;;;;1.63;1.52;;;24.30;97.90;;;;;;5006755;28;20052;-79
2023/10/07 13:45:24;;;;;;;0.85;0.85;;;24.30;98.20;;;;;;5003376;28;20029;-78
2023/10/07 13:47:54;;;;;;;1.17;1.17;;;24.10;98.50;;;;;;5003454;28;20033;-78
2023/10/07 13:50:24;;;;;;;0.95;0.95;;;23.80;98.80;;;;;;5006160;28;20040;-82
2023/10/07 13:52:58;;;;;;;2.47;1.55;;;23.80;99.30;;;;;;4999716;28;20883;-82